Time;durP1;ratioP1;P1;durP2;ratioP2;P2;SDS_P1;SDS_P2;PMS_P1;PMS_P2;Temp;Humidity;BMP_temperature;BMP_pressure;BME280_temperature;BME280_humidity;BME280_pressure;Samples;Min_cycle;Max_cycle;Signal;HPM_P1;HPM_P2
2021/07/16 00:02:12;;;;;;;11.20;6.50;;;20.90;99.90;;;;;;5080176;28;20188;-92
2021/07/16 00:04:38;;;;;;;11.50;6.63;;;20.80;99.90;;;;;;5087217;28;20177;-91
2021/07/16 00:07:04;;;;;;;14.90;6.70;;;20.80;99.90;;;;;;5081827;28;20208;-91
2021/07/16 00:09:30;;;;;;;16.57;7.43;;;20.80;99.90;;;;;;5076041;28;20207;-92
2021/07/16 00:11:55;;;;;;;18.70;7.10;;;20.70;99.90;;;;;;5087026;28;20652;-93
2021/07/16 00:14:21;;;;;;;14.13;7.37;;;20.70;99.90;;;;;;5085462;28;20928;-92
2021/07/16 00:16:47;;;;;;;18.07;7.93;;;20.70;99.90;;;;;;5085629;28;20219;-91
2021/07/16 00:19:12;;;;;;;17.70;7.77;;;20.70;99.90;;;;;;5077386;28;20695;-90
2021/07/16 00:21:38;;;;;;;14.77;6.50;;;20.70;99.90;;;;;;5076485;28;20179;-90
2021/07/16 00:24:04;;;;;;;16.20;6.73;;;20.70;99.90;;;;;;5077888;28;20170;-89
2021/07/16 00:26:29;;;;;;;22.50;7.90;;;20.70;99.90;;;;;;5082718;28;20213;-89
2021/07/16 00:28:56;;;;;;;13.20;7.77;;;20.70;99.90;;;;;;5082877;28;20180;-88
2021/07/16 00:31:22;;;;;;;17.83;7.23;;;20.60;99.90;;;;;;5074628;28;20424;-90
2021/07/16 00:33:48;;;;;;;16.07;6.27;;;20.60;99.90;;;;;;5094127;28;20437;-90
2021/07/16 00:36:14;;;;;;;15.77;6.80;;;20.50;99.90;;;;;;5078129;28;20420;-90
2021/07/16 00:38:40;;;;;;;16.17;7.50;;;20.50;99.90;;;;;;5075370;28;20173;-91
2021/07/16 00:41:06;;;;;;;11.07;6.37;;;20.50;99.90;;;;;;5080474;28;20166;-92
2021/07/16 00:43:32;;;;;;;10.77;6.80;;;20.40;99.90;;;;;;5082015;28;20434;-92
2021/07/16 00:45:58;;;;;;;15.77;6.60;;;20.40;99.90;;;;;;5080518;28;20457;-92
2021/07/16 00:48:23;;;;;;;14.00;7.43;;;20.40;99.90;;;;;;5082190;28;20171;-93
2021/07/16 00:50:52;;;;;;;13.90;8.20;;;20.30;99.90;;;;;;5090588;28;20180;-90
2021/07/16 00:53:19;;;;;;;12.30;6.43;;;20.30;99.90;;;;;;5093354;28;20233;-91
2021/07/16 00:55:46;;;;;;;14.73;7.13;;;20.20;99.90;;;;;;5074308;28;20558;-88
2021/07/16 00:58:13;;;;;;;14.40;7.77;;;20.20;99.90;;;;;;5084162;28;20424;-90
2021/07/16 01:00:39;;;;;;;15.50;7.93;;;20.20;99.90;;;;;;5073949;28;20619;-90
2021/07/16 01:03:05;;;;;;;15.03;7.40;;;20.10;99.90;;;;;;5087823;28;20416;-91
2021/07/16 01:05:31;;;;;;;18.47;7.40;;;20.10;99.90;;;;;;5094806;28;20412;-89
2021/07/16 01:07:57;;;;;;;17.23;7.40;;;20.00;99.90;;;;;;5079038;28;20245;-90
2021/07/16 01:10:23;;;;;;;21.23;7.60;;;20.10;99.90;;;;;;5075223;28;20410;-91
2021/07/16 01:12:53;;;;;;;13.83;6.37;;;20.00;99.90;;;;;;5074440;28;20921;-91
2021/07/16 01:15:24;;;;;;;13.00;7.17;;;20.00;99.90;;;;;;5074878;28;20777;-90
2021/07/16 01:17:51;;;;;;;12.80;6.90;;;20.00;99.90;;;;;;5076206;28;20425;-92
2021/07/16 01:20:30;;;;;;;14.17;6.90;;;19.90;99.90;;;;;;5079792;28;20445;-88
2021/07/16 01:22:58;;;;;;;17.47;6.87;;;19.90;99.90;;;;;;5072914;28;20824;-90
2021/07/16 01:25:25;;;;;;;11.73;5.90;;;19.90;99.90;;;;;;5074078;28;20431;-92
2021/07/16 01:27:55;;;;;;;11.23;6.70;;;19.80;99.90;;;;;;5073227;28;20524;-90
2021/07/16 01:30:24;;;;;;;15.43;5.50;;;19.80;99.90;;;;;;5074241;28;20513;-91
2021/07/16 01:32:51;;;;;;;13.27;6.10;;;19.70;99.90;;;;;;5074283;28;20431;-88
2021/07/16 01:35:20;;;;;;;14.70;6.90;;;19.70;99.90;;;;;;5074176;28;20924;-90
2021/07/16 01:37:46;;;;;;;16.83;6.33;;;19.70;99.90;;;;;;5085071;28;20425;-90
2021/07/16 01:40:14;;;;;;;15.57;8.67;;;19.70;99.90;;;;;;5094137;28;20418;-89
2021/07/16 01:42:45;;;;;;;15.80;6.37;;;19.70;99.90;;;;;;5093921;28;20405;-89
2021/07/16 01:45:20;;;;;;;15.50;5.40;;;19.70;99.90;;;;;;5092971;28;20939;-92
2021/07/16 01:47:52;;;;;;;15.10;7.40;;;19.70;99.90;;;;;;5094161;28;20500;-90
2021/07/16 01:50:19;;;;;;;12.47;6.47;;;19.60;99.90;;;;;;5093295;28;20516;-89
2021/07/16 01:52:46;;;;;;;15.10;6.67;;;19.50;99.90;;;;;;5082284;28;20421;-92
2021/07/16 01:55:13;;;;;;;18.67;6.83;;;19.50;99.90;;;;;;5073894;28;20423;-92
2021/07/16 01:57:39;;;;;;;17.43;6.13;;;19.50;99.90;;;;;;5072882;28;20425;-88
2021/07/16 02:00:10;;;;;;;15.07;5.77;;;19.40;99.90;;;;;;5072617;28;20462;-93
2021/07/16 02:02:51;;;;;;;16.70;5.97;;;19.40;99.90;;;;;;5074200;28;20598;-90
2021/07/16 02:05:18;;;;;;;13.97;5.23;;;19.30;99.90;;;;;;5073221;28;20418;-92
2021/07/16 02:07:49;;;;;;;11.73;6.27;;;19.30;99.90;;;;;;5072788;28;20473;-93
2021/07/16 02:10:19;;;;;;;13.50;5.27;;;19.30;99.90;;;;;;5072990;28;20759;-93
2021/07/16 02:12:45;;;;;;;9.63;4.50;;;19.30;99.90;;;;;;5073322;28;20479;-93
2021/07/16 02:15:20;;;;;;;16.20;5.63;;;19.30;99.90;;;;;;5073060;28;20413;-93
2021/07/16 02:17:47;;;;;;;16.77;5.40;;;19.20;99.90;;;;;;5073915;28;20451;-91
2021/07/16 02:20:30;;;;;;;11.17;4.90;;;19.20;99.90;;;;;;5073171;28;20425;-93
2021/07/16 02:22:58;;;;;;;11.37;5.53;;;19.10;99.90;;;;;;5073660;28;20412;-92
2021/07/16 02:25:25;;;;;;;12.77;5.40;;;19.20;99.90;;;;;;5074657;28;20420;-94
2021/07/16 02:27:57;;;;;;;10.20;4.73;;;19.10;99.90;;;;;;5073733;28;20882;-91
2021/07/16 02:30:25;;;;;;;13.73;4.90;;;19.10;99.90;;;;;;5073596;28;20496;-92
2021/07/16 02:32:51;;;;;;;13.83;5.60;;;19.00;99.90;;;;;;5074032;28;20413;-91
2021/07/16 02:35:17;;;;;;;13.00;5.13;;;19.00;99.90;;;;;;5073867;28;20451;-91
2021/07/16 02:37:43;;;;;;;8.20;5.03;;;19.00;99.90;;;;;;5072405;28;20221;-92
2021/07/16 02:40:11;;;;;;;10.73;5.07;;;19.10;99.90;;;;;;5072613;28;20425;-94
2021/07/16 02:42:37;;;;;;;14.10;5.07;;;19.00;99.90;;;;;;5073847;28;20417;-93
2021/07/16 02:45:08;;;;;;;11.93;4.53;;;19.00;99.90;;;;;;5075720;28;20418;-95
2021/07/16 02:47:36;;;;;;;9.23;4.73;;;19.00;99.90;;;;;;5078077;28;20448;-93
2021/07/16 02:50:04;;;;;;;15.93;5.67;;;19.00;99.90;;;;;;5077929;28;20411;-92
2021/07/16 02:52:29;;;;;;;7.97;4.50;;;19.00;99.90;;;;;;5084450;28;20898;-91
2021/07/16 02:54:55;;;;;;;11.67;5.47;;;19.00;99.90;;;;;;5076485;28;20421;-91
2021/07/16 02:57:20;;;;;;;13.57;5.37;;;19.00;99.90;;;;;;5076595;28;20176;-92
2021/07/16 02:59:46;;;;;;;11.67;6.40;;;19.00;99.90;;;;;;5077106;28;20181;-90
2021/07/16 03:02:11;;;;;;;16.27;6.37;;;19.00;99.90;;;;;;5077412;28;20191;-90
2021/07/16 03:04:37;;;;;;;15.33;3.53;;;19.00;99.90;;;;;;5077388;28;20584;-93
2021/07/16 03:07:03;;;;;;;15.23;4.80;;;19.00;99.90;;;;;;5076856;28;20213;-89
2021/07/16 03:09:34;;;;;;;13.23;5.03;;;18.90;99.90;;;;;;5076958;28;20168;-90
2021/07/16 03:12:03;;;;;;;16.57;5.00;;;18.90;99.90;;;;;;5077394;28;20234;-91
2021/07/16 03:14:28;;;;;;;11.63;4.70;;;18.80;99.90;;;;;;5076065;28;20417;-91
2021/07/16 03:16:54;;;;;;;14.57;5.17;;;18.90;99.90;;;;;;5076184;28;20474;-91
2021/07/16 03:19:20;;;;;;;11.23;4.57;;;18.80;99.90;;;;;;5077050;28;20171;-91
2021/07/16 03:21:45;;;;;;;10.50;5.77;;;18.80;99.90;;;;;;5076506;28;20567;-91
2021/07/16 03:24:11;;;;;;;14.07;6.53;;;18.80;99.90;;;;;;5075639;28;20172;-87
2021/07/16 03:26:38;;;;;;;14.47;5.30;;;18.80;99.90;;;;;;5074449;28;20213;-87
2021/07/16 03:29:04;;;;;;;10.90;5.40;;;18.80;99.90;;;;;;5075706;28;20533;-87
2021/07/16 03:31:30;;;;;;;12.30;4.77;;;18.80;99.90;;;;;;5075700;28;20503;-87
2021/07/16 03:33:55;;;;;;;18.83;6.87;;;18.70;99.90;;;;;;5075657;28;20504;-86
2021/07/16 03:36:21;;;;;;;10.63;4.23;;;18.60;99.90;;;;;;5075362;28;20171;-87
2021/07/16 03:38:47;;;;;;;8.17;5.10;;;18.60;99.90;;;;;;5074338;28;20620;-86
2021/07/16 03:41:14;;;;;;;17.93;5.90;;;18.70;99.90;;;;;;5074152;28;20174;-87
2021/07/16 03:43:40;;;;;;;13.93;4.83;;;18.70;99.90;;;;;;5073902;28;20418;-87
2021/07/16 03:46:05;;;;;;;16.30;7.00;;;18.60;99.90;;;;;;5075350;28;20863;-87
2021/07/16 03:48:32;;;;;;;13.53;4.90;;;18.70;99.90;;;;;;5074118;28;20177;-86
2021/07/16 03:50:58;;;;;;;10.53;5.17;;;18.60;99.90;;;;;;5075298;28;20171;-86
2021/07/16 03:53:24;;;;;;;13.40;5.17;;;18.60;99.90;;;;;;5073650;28;20424;-87
2021/07/16 03:55:50;;;;;;;12.73;5.43;;;18.70;99.90;;;;;;5074587;28;20412;-87
2021/07/16 03:58:15;;;;;;;13.40;6.07;;;18.60;99.90;;;;;;5073744;28;20747;-86
2021/07/16 04:00:41;;;;;;;10.23;5.50;;;18.60;99.90;;;;;;5073702;28;20229;-87
2021/07/16 04:03:07;;;;;;;11.47;5.27;;;18.60;99.90;;;;;;5075155;28;20628;-88
2021/07/16 04:05:33;;;;;;;9.17;4.63;;;18.60;99.90;;;;;;5075086;28;20181;-86
2021/07/16 04:08:04;;;;;;;7.80;4.93;;;18.60;99.90;;;;;;5074629;28;20236;-87
2021/07/16 04:10:31;;;;;;;12.07;4.97;;;18.70;99.90;;;;;;5074080;28;20920;-88
2021/07/16 04:13:08;;;;;;;12.80;5.10;;;18.70;99.90;;;;;;5075033;28;20427;-88
2021/07/16 04:15:34;;;;;;;11.20;4.83;;;18.80;99.90;;;;;;5074799;28;20737;-87
2021/07/16 04:18:02;;;;;;;15.53;5.50;;;18.80;99.90;;;;;;5073458;28;20443;-87
2021/07/16 04:20:29;;;;;;;18.20;5.47;;;18.80;99.90;;;;;;5074845;28;20414;-87
2021/07/16 04:22:56;;;;;;;14.73;6.40;;;18.80;99.90;;;;;;5075346;28;20444;-87
2021/07/16 04:25:21;;;;;;;11.00;5.80;;;18.90;99.90;;;;;;5075645;28;20468;-87
2021/07/16 04:27:51;;;;;;;17.53;7.50;;;19.00;99.90;;;;;;5073327;28;20980;-87
2021/07/16 04:30:19;;;;;;;14.20;6.83;;;19.10;99.90;;;;;;5074730;28;20257;-87
2021/07/16 04:32:45;;;;;;;19.30;7.57;;;19.20;99.90;;;;;;5074539;28;20447;-87
2021/07/16 04:35:14;;;;;;;18.97;7.40;;;19.20;99.90;;;;;;5073384;28;20418;-85
2021/07/16 04:37:40;;;;;;;15.07;6.33;;;19.20;99.90;;;;;;5072940;28;20835;-87
2021/07/16 04:40:08;;;;;;;10.93;6.40;;;19.30;99.90;;;;;;5074127;28;20414;-87
2021/07/16 04:42:34;;;;;;;12.83;5.90;;;19.30;99.90;;;;;;5072864;28;20828;-87
2021/07/16 04:45:00;;;;;;;17.50;7.00;;;19.40;99.90;;;;;;5074155;28;20512;-87
2021/07/16 04:47:26;;;;;;;15.77;8.27;;;19.40;99.90;;;;;;5072787;28;20475;-87
2021/07/16 04:49:52;;;;;;;14.20;6.27;;;19.40;99.90;;;;;;5074194;28;20404;-86
2021/07/16 04:52:17;;;;;;;16.67;6.87;;;19.40;99.90;;;;;;5073783;28;20198;-87
2021/07/16 04:54:43;;;;;;;15.40;6.40;;;19.40;99.90;;;;;;5074021;28;20219;-86
2021/07/16 04:57:09;;;;;;;11.70;6.93;;;19.50;99.90;;;;;;5073915;28;20256;-86
2021/07/16 04:59:35;;;;;;;14.67;6.30;;;19.60;99.90;;;;;;5073873;28;20179;-86
2021/07/16 05:02:01;;;;;;;14.40;5.97;;;19.40;99.90;;;;;;5081316;28;20220;-87
2021/07/16 05:04:27;;;;;;;11.90;6.87;;;19.50;99.90;;;;;;5077556;28;20913;-87
2021/07/16 05:06:53;;;;;;;10.87;5.93;;;19.50;99.90;;;;;;5078307;28;20475;-88
2021/07/16 05:09:18;;;;;;;15.30;8.07;;;19.40;99.90;;;;;;5092639;28;20181;-86
2021/07/16 05:11:45;;;;;;;10.80;5.80;;;19.40;99.90;;;;;;5089632;28;20209;-87
2021/07/16 05:14:11;;;;;;;19.67;6.87;;;19.60;99.90;;;;;;5073831;28;20245;-87
2021/07/16 05:16:36;;;;;;;12.17;5.60;;;19.70;99.90;;;;;;5072480;28;20427;-87
2021/07/16 05:19:02;;;;;;;16.23;6.00;;;19.80;99.90;;;;;;5072343;28;20819;-86
2021/07/16 05:21:28;;;;;;;20.07;6.17;;;19.70;99.90;;;;;;5073251;28;20176;-87
2021/07/16 05:23:53;;;;;;;16.30;5.97;;;19.70;99.90;;;;;;5073442;28;20414;-86
2021/07/16 05:26:19;;;;;;;12.67;5.77;;;19.70;99.90;;;;;;5077536;28;20210;-87
2021/07/16 05:28:47;;;;;;;20.00;7.00;;;19.70;99.90;;;;;;5093745;28;20190;-86
2021/07/16 05:31:14;;;;;;;14.83;7.03;;;19.80;99.90;;;;;;5093658;28;20189;-87
2021/07/16 05:33:40;;;;;;;15.73;6.50;;;19.90;99.90;;;;;;5093721;28;20978;-88
2021/07/16 05:36:06;;;;;;;15.30;7.20;;;20.10;99.90;;;;;;5091964;28;20412;-86
2021/07/16 05:38:33;;;;;;;20.00;7.10;;;20.30;99.90;;;;;;5092314;28;20182;-87
2021/07/16 05:40:59;;;;;;;18.10;7.17;;;20.50;99.90;;;;;;5093497;28;20402;-87
2021/07/16 05:43:25;;;;;;;18.90;6.37;;;20.50;99.90;;;;;;5092183;28;20781;-88
2021/07/16 05:45:51;;;;;;;24.93;7.20;;;20.50;99.90;;;;;;5092282;28;20418;-87
2021/07/16 05:48:17;;;;;;;22.70;8.13;;;20.30;99.90;;;;;;5094167;28;20216;-91
2021/07/16 05:50:45;;;;;;;20.60;6.63;;;20.20;99.90;;;;;;5093096;28;20172;-89
2021/07/16 05:53:10;;;;;;;18.33;6.40;;;20.20;99.90;;;;;;5093464;28;20503;-89
2021/07/16 05:55:37;;;;;;;12.93;5.93;;;20.30;99.90;;;;;;5096521;28;20436;-90
2021/07/16 05:58:03;;;;;;;11.50;5.37;;;20.30;99.90;;;;;;5096630;28;20168;-88
2021/07/16 06:00:29;;;;;;;18.77;7.47;;;20.40;99.90;;;;;;5075274;28;20464;-89
2021/07/16 06:02:55;;;;;;;18.20;7.07;;;20.30;99.90;;;;;;5093585;28;20501;-88
2021/07/16 06:05:21;;;;;;;14.20;7.47;;;20.50;99.90;;;;;;5093351;28;20505;-89
2021/07/16 06:07:47;;;;;;;17.23;6.53;;;21.00;99.90;;;;;;5093085;28;20208;-91
2021/07/16 06:10:13;;;;;;;13.63;5.27;;;21.40;99.90;;;;;;5092592;28;20419;-88
2021/07/16 06:12:39;;;;;;;13.37;5.20;;;21.40;99.90;;;;;;5091971;28;20653;-88
2021/07/16 06:15:06;;;;;;;14.33;6.03;;;21.50;99.90;;;;;;5092934;28;20560;-89
2021/07/16 06:17:32;;;;;;;17.67;5.90;;;21.70;99.90;;;;;;5091927;28;20171;-88
2021/07/16 06:19:58;;;;;;;14.50;6.43;;;21.80;99.90;;;;;;5098994;28;20399;-87
2021/07/16 06:22:24;;;;;;;22.23;7.20;;;21.90;99.90;;;;;;5098174;28;20412;-87
2021/07/16 06:24:50;;;;;;;15.13;5.70;;;22.00;99.90;;;;;;5099805;28;20838;-87
2021/07/16 06:27:15;;;;;;;17.93;5.10;;;22.30;99.90;;;;;;5093529;28;20972;-88
2021/07/16 06:29:41;;;;;;;18.30;6.07;;;22.40;99.90;;;;;;5098960;28;20261;-89
2021/07/16 06:32:07;;;;;;;22.07;7.37;;;22.10;99.90;;;;;;5101184;28;20218;-90
2021/07/16 06:34:32;;;;;;;16.50;7.40;;;22.00;99.90;;;;;;5098665;28;20211;-89
2021/07/16 06:36:58;;;;;;;15.33;6.17;;;22.00;99.90;;;;;;5097987;28;20173;-88
2021/07/16 06:39:24;;;;;;;20.83;6.33;;;22.00;99.90;;;;;;5097956;28;20681;-89
2021/07/16 06:41:50;;;;;;;13.13;6.20;;;22.00;99.90;;;;;;5098940;28;20853;-90
2021/07/16 06:44:16;;;;;;;19.53;6.10;;;21.90;99.90;;;;;;5099162;28;20188;-88
2021/07/16 06:46:42;;;;;;;18.20;6.77;;;21.80;99.90;;;;;;5097629;28;20472;-88
2021/07/16 06:49:08;;;;;;;19.40;7.00;;;21.70;99.90;;;;;;5097765;28;20178;-88
2021/07/16 06:51:34;;;;;;;20.80;7.83;;;22.30;99.90;;;;;;5098595;28;20175;-89
2021/07/16 06:54:00;;;;;;;18.90;6.30;;;22.60;99.90;;;;;;5097721;28;20421;-88
2021/07/16 06:56:26;;;;;;;19.17;5.93;;;24.00;86.30;;;;;;5091628;28;20659;-90
2021/07/16 06:58:52;;;;;;;22.17;6.60;;;24.50;1.00;;;;;;5088565;28;20447;-88
2021/07/16 07:01:19;;;;;;;14.43;6.20;;;24.90;1.00;;;;;;5084341;28;20216;-87
2021/07/16 07:03:45;;;;;;;16.50;5.93;;;26.50;1.00;;;;;;5086571;28;20425;-90
2021/07/16 07:06:11;;;;;;;11.50;5.63;;;24.60;1.00;;;;;;5095509;28;20453;-91
2021/07/16 07:08:36;;;;;;;16.80;6.43;;;25.00;1.00;;;;;;5086083;28;20172;-92
2021/07/16 07:11:02;;;;;;;18.27;6.87;;;27.20;99.90;;;;;;5089841;28;20172;-90
2021/07/16 07:13:28;;;;;;;14.97;5.37;;;25.70;1.00;;;;;;5093218;28;20191;-90
2021/07/16 07:15:54;;;;;;;11.30;6.50;;;23.80;14.70;;;;;;5087928;28;20414;-89
2021/07/16 07:18:19;;;;;;;17.00;6.60;;;23.00;97.10;;;;;;5092238;28;20177;-89
2021/07/16 07:20:45;;;;;;;17.03;7.90;;;22.90;99.90;;;;;;5080804;28;20187;-88
2021/07/16 07:23:11;;;;;;;13.80;5.60;;;23.60;41.90;;;;;;5095635;28;20172;-89
2021/07/16 07:25:37;;;;;;;15.10;6.30;;;25.20;1.00;;;;;;5096996;28;20654;-94
2021/07/16 07:28:03;;;;;;;13.80;6.47;;;26.20;1.00;;;;;;5085734;28;20477;-93
2021/07/16 07:30:28;;;;;;;12.73;6.00;;;27.50;1.00;;;;;;5083407;28;20165;-93
2021/07/16 07:32:54;;;;;;;16.53;5.43;;;28.80;1.00;;;;;;5098923;28;20422;-93
2021/07/16 07:35:20;;;;;;;14.57;6.50;;;26.50;1.00;;;;;;5099028;28;20180;-92
2021/07/16 07:37:45;;;;;;;16.70;5.97;;;24.70;1.00;;;;;;5104465;28;20165;-91
2021/07/16 07:40:14;;;;;;;18.23;6.33;;;24.60;1.00;;;;;;5105287;28;20245;-87
2021/07/16 07:42:40;;;;;;;17.33;6.60;;;27.30;99.90;;;;;;5099988;28;20169;-87
2021/07/16 07:45:07;;;;;;;13.10;5.40;;;25.80;1.00;;;;;;5100378;28;20401;-88
2021/07/16 07:47:34;;;;;;;13.60;5.97;;;24.40;1.00;;;;;;5164335;22;20232;-85
2021/07/16 07:50:01;;;;;;;14.07;5.97;;;24.00;28.70;;;;;;5095735;28;20590;-86
2021/07/16 07:52:31;;;;;;;15.93;6.57;;;23.80;87.50;;;;;;5072220;28;20432;-92
2021/07/16 07:54:56;;;;;;;14.47;6.43;;;24.10;25.90;;;;;;5042019;28;20793;-93
2021/07/16 07:57:22;;;;;;;13.83;6.50;;;25.80;1.00;;;;;;5059304;28;20411;-90
2021/07/16 07:59:48;;;;;;;10.70;4.90;;;25.30;1.00;;;;;;5056899;28;20633;-91
2021/07/16 08:02:14;;;;;;;11.17;6.30;;;25.80;1.00;;;;;;5057697;28;20183;-91
2021/07/16 08:04:41;;;;;;;15.03;6.40;;;26.90;99.90;;;;;;5079885;28;20201;-89
2021/07/16 08:07:06;;;;;;;11.63;5.00;;;27.30;99.90;;;;;;5059464;28;20578;-92
2021/07/16 08:09:33;;;;;;;15.70;5.67;;;29.00;1.00;;;;;;5057300;28;20423;-92
2021/07/16 08:12:00;;;;;;;10.90;5.07;;;27.70;99.90;;;;;;5224948;22;20233;-94
2021/07/16 08:14:28;;;;;;;14.07;4.80;;;26.60;1.00;;;;;;5048585;28;20432;-93
2021/07/16 08:16:55;;;;;;;14.57;5.53;;;26.70;1.00;;;;;;5039468;28;20431;-92
2021/07/16 08:19:21;;;;;;;14.60;5.97;;;26.40;1.00;;;;;;5058522;28;20431;-91
2021/07/16 08:21:54;;;;;;;15.37;5.13;;;27.30;99.90;;;;;;5050325;28;20423;-94
2021/07/16 08:24:21;;;;;;;10.77;5.23;;;27.10;1.00;;;;;;5043851;28;20533;-92
2021/07/16 08:26:46;;;;;;;11.83;5.30;;;27.80;99.90;;;;;;5054395;28;20507;-93
2021/07/16 08:29:13;;;;;;;10.17;4.50;;;28.20;1.00;;;;;;5048173;28;20513;-92
2021/07/16 08:31:40;;;;;;;12.77;5.20;;;27.90;99.90;;;;;;5043172;28;20697;-90
2021/07/16 08:34:06;;;;;;;14.17;5.70;;;27.80;99.90;;;;;;5064574;28;20431;-91
2021/07/16 08:36:32;;;;;;;12.67;5.33;;;27.30;99.90;;;;;;5065030;28;20460;-94
2021/07/16 08:38:57;;;;;;;11.53;5.70;;;27.30;1.00;;;;;;5068169;28;20435;-94
2021/07/16 08:41:26;;;;;;;12.50;5.60;;;27.60;1.00;;;;;;5196001;22;20222;-92
2021/07/16 08:43:52;;;;;;;11.13;5.50;;;27.60;99.90;;;;;;5049481;28;20178;-90
2021/07/16 08:46:20;;;;;;;11.07;5.70;;;27.70;99.90;;;;;;5049928;28;20472;-92
2021/07/16 08:51:32;;;;;;;10.10;4.60;;;27.00;1.00;;;;;;5123331;22;20930;-93
2021/07/16 08:53:58;;;;;;;16.30;6.13;;;28.30;99.90;;;;;;5080323;28;20438;-94
2021/07/16 08:56:31;;;;;;;10.03;5.03;;;29.60;1.00;;;;;;5067066;28;20436;-92
2021/07/16 08:58:58;;;;;;;12.57;5.00;;;30.40;1.00;;;;;;5068709;28;20168;-94
2021/07/16 09:01:23;;;;;;;9.40;4.20;;;30.90;1.00;;;;;;5065348;28;20420;-94
2021/07/16 09:04:01;;;;;;;14.00;4.93;;;31.00;99.90;;;;;;5078576;28;20407;-93
2021/07/16 09:06:58;;;;;;;12.13;5.13;;;30.80;99.90;;;;;;5062124;28;20193;-91
2021/07/16 09:09:36;;;;;;;9.87;5.23;;;31.30;99.90;;;;;;5052170;28;20447;-94
2021/07/16 09:12:10;;;;;;;11.53;5.10;;;31.20;48.30;;;;;;5090851;28;20449;-96
2021/07/16 09:14:40;;;;;;;12.50;5.30;;;31.20;99.90;;;;;;5071224;28;20408;-94
2021/07/16 09:17:10;;;;;;;11.53;6.00;;;30.60;1.00;;;;;;5072740;28;20816;-94
2021/07/16 09:19:52;;;;;;;15.57;5.27;;;29.60;99.90;;;;;;5066723;28;20430;-95
2021/07/16 09:22:23;;;;;;;11.53;5.23;;;30.20;1.00;;;;;;5068399;28;20522;-93
2021/07/16 09:24:56;;;;;;;10.10;4.40;;;31.20;99.90;;;;;;5076011;22;20485;-94
2021/07/16 09:27:44;;;;;;;8.70;4.47;;;31.20;33.90;;;;;;5083834;28;20470;-93
2021/07/16 09:30:49;;;;;;;9.77;4.87;;;31.40;1.00;;;;;;5085036;28;20479;-94
2021/07/16 09:33:16;;;;;;;11.20;4.60;;;30.00;1.00;;;;;;5086143;28;20431;-94
2021/07/16 09:35:43;;;;;;;11.00;4.50;;;29.80;1.00;;;;;;5074331;28;20421;-94
2021/07/16 09:38:18;;;;;;;11.40;4.83;;;30.80;99.90;;;;;;5108777;28;20426;-94
2021/07/16 09:40:52;;;;;;;8.60;4.50;;;31.30;99.90;;;;;;5094814;28;20413;-94
2021/07/16 09:43:26;;;;;;;9.00;5.10;;;31.70;99.90;;;;;;5089265;28;20428;-94
2021/07/16 09:46:14;;;;;;;13.93;5.17;;;31.60;99.90;;;;;;5093908;28;20429;-95
2021/07/16 09:48:43;;;;;;;12.90;5.23;;;30.40;1.00;;;;;;5102391;28;20430;-95
2021/07/16 09:51:14;;;;;;;11.40;5.37;;;29.60;99.90;;;;;;5094245;28;20405;-92
2021/07/16 09:54:01;;;;;;;10.83;4.60;;;29.30;99.90;;;;;;5089897;28;20411;-94
2021/07/16 09:56:32;;;;;;;11.93;4.73;;;30.40;99.90;;;;;;5085477;28;20468;-93
2021/07/16 09:59:17;;;;;;;10.93;4.43;;;31.60;99.90;;;;;;5080127;28;20414;-94
2021/07/16 10:01:50;;;;;;;9.00;4.60;;;32.20;1.00;;;;;;5074733;28;20442;-94
2021/07/16 10:04:19;;;;;;;16.00;5.27;;;32.00;1.00;;;;;;5065846;28;20451;-94
2021/07/16 10:06:47;;;;;;;11.50;4.80;;;31.70;1.00;;;;;;5085487;28;20511;-94
2021/07/16 10:09:14;;;;;;;18.90;5.80;;;31.40;33.90;;;;;;5066219;28;20430;-95
2021/07/16 10:11:40;;;;;;;11.77;4.63;;;31.80;1.00;;;;;;5069345;28;20431;-94
2021/07/16 10:14:09;;;;;;;10.10;4.57;;;32.10;99.90;;;;;;5067307;28;20419;-95
2021/07/16 10:16:39;;;;;;;8.13;4.70;;;30.90;99.90;;;;;;5068826;28;20430;-95
2021/07/16 10:19:05;;;;;;;8.37;4.53;;;30.70;4.50;;;;;;5067866;28;20402;-95
2021/07/16 10:21:31;;;;;;;11.90;4.50;;;30.90;1.00;;;;;;5064106;28;20434;-93
2021/07/16 10:23:58;;;;;;;12.30;5.50;;;30.50;99.90;;;;;;5074147;28;20462;-94
2021/07/16 10:26:26;;;;;;;6.83;4.20;;;30.40;99.90;;;;;;5087162;28;20208;-93
2021/07/16 10:29:19;;;;;;;9.67;5.20;;;29.70;1.00;;;;;;5067907;28;20447;-95
2021/07/16 10:32:33;;;;;;;10.83;4.70;;;29.40;99.90;;;;;;5079458;28;20430;-94
2021/07/16 10:35:15;;;;;;;11.07;5.77;;;29.20;1.00;;;;;;5109946;28;20485;-95
2021/07/16 10:37:42;;;;;;;14.53;5.00;;;29.00;1.00;;;;;;5088499;28;20467;-93
2021/07/16 10:40:36;;;;;;;7.73;4.70;;;28.40;1.00;;;;;;5089046;28;20454;-94
2021/07/16 10:43:25;;;;;;;11.43;5.33;;;28.40;99.90;;;;;;5117117;22;20418;-94
2021/07/16 10:45:51;;;;;;;8.63;4.90;;;28.00;99.90;;;;;;5067142;28;20447;-95
2021/07/16 10:48:20;;;;;;;7.77;4.67;;;27.90;99.90;;;;;;5087564;28;20553;-93
2021/07/16 10:50:48;;;;;;;8.97;5.30;;;28.00;1.00;;;;;;5064465;28;20412;-94
2021/07/16 10:53:40;;;;;;;10.70;5.27;;;28.30;1.00;;;;;;5069402;28;20438;-93
2021/07/16 10:56:10;;;;;;;7.30;4.63;;;28.30;99.90;;;;;;5064324;28;20423;-94
2021/07/16 10:58:36;;;;;;;11.60;5.20;;;28.40;99.90;;;;;;5062183;28;20412;-93
2021/07/16 11:01:04;;;;;;;11.10;4.67;;;28.50;1.00;;;;;;5066442;28;20411;-92
2021/07/16 11:03:44;;;;;;;16.03;6.00;;;28.50;99.90;;;;;;5066440;28;20236;-94
2021/07/16 11:06:17;;;;;;;13.00;4.80;;;28.20;99.90;;;;;;5064819;28;20460;-94
2021/07/16 11:08:43;;;;;;;9.70;5.40;;;30.00;99.90;;;;;;5069012;28;20430;-94
2021/07/16 11:11:08;;;;;;;11.80;5.87;;;30.80;1.00;;;;;;5069163;28;20422;-94
2021/07/16 11:13:47;;;;;;;11.63;6.10;;;30.60;1.00;;;;;;5073221;28;20177;-96
2021/07/16 11:16:16;;;;;;;12.00;5.77;;;31.00;1.00;;;;;;5056509;28;20162;-95
2021/07/16 11:19:07;;;;;;;11.50;4.40;;;30.50;99.90;;;;;;5066603;28;20416;-94
2021/07/16 11:21:41;;;;;;;13.10;9.20;;;29.70;99.90;;;;;;5069957;28;20420;-95
2021/07/16 11:24:46;;;;;;;14.37;7.70;;;30.40;99.90;;;;;;5073260;28;20502;-94
2021/07/16 11:27:20;;;;;;;8.80;5.63;;;31.20;1.00;;;;;;5049594;28;20478;-93
2021/07/16 11:29:49;;;;;;;11.93;7.63;;;29.90;99.90;;;;;;5049235;28;20412;-95
2021/07/16 11:32:27;;;;;;;14.83;8.10;;;29.50;99.90;;;;;;5048139;28;20420;-94
2021/07/16 11:34:59;;;;;;;13.37;9.10;;;29.20;99.90;;;;;;5070152;28;20777;-94
2021/07/16 11:37:40;;;;;;;14.00;6.27;;;28.80;99.90;;;;;;5047550;28;20411;-94
2021/07/16 11:40:15;;;;;;;16.60;11.73;;;28.60;99.90;;;;;;5048648;28;20422;-95
2021/07/16 11:42:52;;;;;;;17.23;15.40;;;28.40;1.00;;;;;;5065860;28;20427;-94
2021/07/16 11:45:23;;;;;;;14.23;7.63;;;29.90;99.90;;;;;;5068971;28;20466;-95
2021/07/16 11:47:50;;;;;;;15.60;11.63;;;30.80;99.90;;;;;;5073466;28;20463;-94
2021/07/16 11:50:27;;;;;;;13.37;7.13;;;30.90;99.90;;;;;;5072564;28;20434;-95
2021/07/16 11:52:54;;;;;;;14.63;13.10;;;30.30;99.90;;;;;;5074367;28;20441;-96
2021/07/16 11:55:36;;;;;;;12.77;5.67;;;30.40;1.00;;;;;;5075940;28;20399;-94
2021/07/16 11:58:04;;;;;;;10.33;4.60;;;31.10;99.90;;;;;;5076195;28;20413;-93
2021/07/16 12:00:42;;;;;;;8.30;4.40;;;32.20;99.90;;;;;;5096446;28;20432;-94
2021/07/16 12:03:20;;;;;;;9.07;4.90;;;31.30;99.90;;;;;;5070841;28;20394;-94
2021/07/16 12:05:53;;;;;;;11.27;4.63;;;31.10;1.00;;;;;;5082801;22;20521;-89
2021/07/16 12:08:29;;;;;;;6.93;4.90;;;31.10;99.90;;;;;;5071931;28;20527;-89
2021/07/16 12:11:11;;;;;;;9.87;4.60;;;31.20;1.00;;;;;;5058922;28;20412;-91
2021/07/16 12:13:39;;;;;;;10.20;5.53;;;32.00;99.90;;;;;;5054318;28;20546;-95
2021/07/16 12:16:16;;;;;;;15.57;11.50;;;32.60;1.00;;;;;;5047638;28;20486;-95
2021/07/16 12:18:42;;;;;;;22.43;13.17;;;32.20;99.90;;;;;;5047836;28;20423;-94
2021/07/16 12:21:13;;;;;;;11.43;8.37;;;31.50;1.00;;;;;;5048735;28;20396;-94
2021/07/16 12:23:40;;;;;;;14.50;12.50;;;30.70;1.00;;;;;;5048347;28;20474;-92
2021/07/16 12:26:12;;;;;;;10.87;7.40;;;30.30;1.00;;;;;;5057820;28;20431;-92
2021/07/16 12:28:38;;;;;;;9.47;6.60;;;30.70;99.90;;;;;;5040023;28;20432;-94
2021/07/16 12:31:04;;;;;;;12.87;7.33;;;31.30;1.00;;;;;;5039599;28;20412;-92
2021/07/16 12:33:36;;;;;;;17.33;12.93;;;31.10;1.00;;;;;;5055655;28;20245;-91
2021/07/16 12:36:03;;;;;;;10.00;6.10;;;31.40;99.90;;;;;;5034040;28;20702;-92
2021/07/16 12:38:30;;;;;;;12.97;6.67;;;31.90;99.90;;;;;;5055429;28;20416;-94
2021/07/16 12:41:07;;;;;;;10.03;4.53;;;32.40;99.90;;;;;;5056728;28;20411;-94
2021/07/16 12:43:42;;;;;;;9.57;4.73;;;32.90;1.00;;;;;;5037896;28;20503;-93
2021/07/16 12:46:09;;;;;;;9.07;4.70;;;32.50;99.90;;;;;;5038125;28;20473;-93
2021/07/16 12:48:36;;;;;;;11.00;5.80;;;32.60;1.00;;;;;;5038162;28;20471;-92
2021/07/16 12:51:12;;;;;;;10.07;4.97;;;30.90;41.50;;;;;;5039461;28;20425;-94
2021/07/16 12:53:52;;;;;;;9.70;4.77;;;30.40;99.90;;;;;;5039171;28;20447;-94